createdAt,value
2022-10-28T00:01:20.451Z,16.80
2022-10-28T00:04:01.412Z,16.80
2022-10-28T00:06:31.996Z,17.00
2022-10-28T00:09:00.194Z,16.90
2022-10-28T00:11:33.572Z,16.80
2022-10-28T00:14:04.045Z,16.70
2022-10-28T00:16:34.825Z,16.70
2022-10-28T00:19:03.820Z,16.70
2022-10-28T00:21:34.157Z,16.70
2022-10-28T00:24:01.572Z,16.60
2022-10-28T00:26:31.514Z,16.50
2022-10-28T00:29:02.357Z,16.40
2022-10-28T00:31:36.395Z,16.40
2022-10-28T00:34:21.497Z,16.40
2022-10-28T00:36:49.335Z,16.40
2022-10-28T00:39:22.717Z,16.40
2022-10-28T00:41:56.490Z,16.40
2022-10-28T00:44:48.619Z,16.40
2022-10-28T00:47:37.624Z,16.40
2022-10-28T00:50:22.752Z,16.50
2022-10-28T00:53:01.448Z,16.40
2022-10-28T00:55:30.671Z,16.40
2022-10-28T00:57:59.653Z,16.40
2022-10-28T01:00:27.423Z,16.40
2022-10-28T01:02:56.461Z,16.50
2022-10-28T01:05:29.034Z,16.50
2022-10-28T01:08:00.372Z,16.60
2022-10-28T01:10:59.464Z,16.50
2022-10-28T01:13:38.521Z,16.50
2022-10-28T01:16:14.776Z,16.60
2022-10-28T01:19:18.007Z,16.70
2022-10-28T01:22:14.150Z,16.80
2022-10-28T01:25:02.853Z,16.90
2022-10-28T01:27:39.461Z,16.90
2022-10-28T01:30:11.571Z,16.90
2022-10-28T01:32:47.740Z,16.80
2022-10-28T01:35:33.009Z,16.80
2022-10-28T01:38:26.772Z,16.80
2022-10-28T01:41:08.579Z,16.80
2022-10-28T01:43:54.028Z,16.80
2022-10-28T01:46:26.992Z,16.80
2022-10-28T01:49:10.390Z,16.70
2022-10-28T01:51:44.517Z,16.70
2022-10-28T01:54:17.553Z,16.70
2022-10-28T01:56:47.206Z,16.80
2022-10-28T01:59:22.086Z,16.90
2022-10-28T02:01:49.520Z,17.00
2022-10-28T02:04:17.316Z,17.00
2022-10-28T02:06:48.213Z,17.00
2022-10-28T02:09:32.983Z,17.00
2022-10-28T02:12:03.454Z,17.00
2022-10-28T02:14:46.017Z,16.90
2022-10-28T02:17:38.485Z,16.90
2022-10-28T02:20:29.687Z,16.90
2022-10-28T02:23:03.111Z,16.90
2022-10-28T02:25:41.481Z,16.90
2022-10-28T02:28:12.965Z,16.90
2022-10-28T02:30:51.255Z,16.90
2022-10-28T02:33:26.425Z,16.80
2022-10-28T02:36:01.989Z,16.80
2022-10-28T02:38:39.981Z,16.80
2022-10-28T02:41:16.313Z,16.80
2022-10-28T02:43:45.833Z,16.80
2022-10-28T02:46:14.814Z,16.80
2022-10-28T02:48:48.352Z,16.80
2022-10-28T02:51:20.004Z,16.70
2022-10-28T02:54:05.998Z,16.70
2022-10-28T02:56:41.235Z,16.70
2022-10-28T02:59:13.239Z,16.60
2022-10-28T03:01:40.876Z,16.60
2022-10-28T03:04:09.483Z,16.50
2022-10-28T03:06:36.949Z,16.50
2022-10-28T03:09:04.460Z,16.40
2022-10-28T03:11:31.902Z,16.40
2022-10-28T03:13:59.257Z,16.30
2022-10-28T03:16:26.820Z,16.30
2022-10-28T03:18:54.464Z,16.20
2022-10-28T03:21:21.850Z,16.20
2022-10-28T03:23:49.228Z,16.20
2022-10-28T03:26:16.636Z,16.20
2022-10-28T03:28:44.042Z,16.20
2022-10-28T03:31:11.426Z,16.10
2022-10-28T03:33:38.774Z,16.10
2022-10-28T03:36:06.528Z,16.10
2022-10-28T03:38:33.877Z,16.10
2022-10-28T03:41:01.269Z,16.10
2022-10-28T03:43:28.646Z,16.00
2022-10-28T03:45:56.046Z,16.00
2022-10-28T03:48:23.460Z,15.90
2022-10-28T03:50:54.617Z,15.90
2022-10-28T03:53:26.263Z,15.80
2022-10-28T03:55:58.608Z,15.80
2022-10-28T03:58:26.560Z,15.70
2022-10-28T04:00:55.157Z,15.70
2022-10-28T04:03:23.861Z,15.70
2022-10-28T04:05:51.334Z,15.70
2022-10-28T04:08:19.811Z,15.60
2022-10-28T04:10:47.855Z,15.60
2022-10-28T04:13:16.354Z,15.60
2022-10-28T04:15:44.064Z,15.60
2022-10-28T04:18:12.313Z,15.60
2022-10-28T04:20:39.820Z,15.50
2022-10-28T04:23:07.281Z,15.50
2022-10-28T04:25:34.659Z,15.50
2022-10-28T04:28:02.056Z,15.40
2022-10-28T04:30:29.416Z,15.50
2022-10-28T04:32:56.735Z,15.40
2022-10-28T04:35:24.535Z,15.40
2022-10-28T04:37:52.321Z,15.40
2022-10-28T04:40:19.937Z,15.40
2022-10-28T04:42:47.280Z,15.40
2022-10-28T04:45:15.704Z,15.40
2022-10-28T04:47:43.067Z,15.40
2022-10-28T04:50:10.443Z,15.40
2022-10-28T04:52:37.846Z,15.40
2022-10-28T04:55:05.544Z,15.40
2022-10-28T04:57:33.101Z,15.40
2022-10-28T05:00:00.490Z,15.40
2022-10-28T05:02:27.916Z,15.40
2022-10-28T05:04:55.316Z,15.50
2022-10-28T05:07:23.619Z,15.50
2022-10-28T05:09:51.199Z,15.50
2022-10-28T05:12:18.585Z,15.50
2022-10-28T05:14:47.202Z,15.50
2022-10-28T05:17:16.529Z,15.50
2022-10-28T05:19:45.288Z,15.50
2022-10-28T05:22:12.721Z,15.60
2022-10-28T05:24:40.139Z,15.70
2022-10-28T05:27:07.663Z,15.80
2022-10-28T05:29:35.062Z,15.90
2022-10-28T05:34:36.227Z,16.10
2022-10-28T05:37:03.639Z,16.20
2022-10-28T05:39:30.961Z,16.30
2022-10-28T05:41:58.330Z,16.30
2022-10-28T05:44:25.657Z,16.30
2022-10-28T05:46:54.169Z,16.30
2022-10-28T05:49:21.612Z,16.40
2022-10-28T05:51:49.215Z,16.40
2022-10-28T05:54:16.582Z,16.50
2022-10-28T05:56:43.894Z,16.60
2022-10-28T05:59:11.224Z,16.80
2022-10-28T06:01:39.722Z,16.90
2022-10-28T06:04:07.462Z,17.00
2022-10-28T06:06:34.995Z,17.10
2022-10-28T06:09:02.394Z,17.10
2022-10-28T06:11:28.294Z,17.20
2022-10-28T06:13:55.662Z,17.20
2022-10-28T06:16:23.071Z,17.10
2022-10-28T06:18:51.802Z,17.20
2022-10-28T06:21:19.212Z,17.20
2022-10-28T06:23:46.870Z,17.20
2022-10-28T06:26:14.248Z,17.10
2022-10-28T06:28:41.584Z,17.20
2022-10-28T06:31:09.004Z,17.20
2022-10-28T06:33:36.514Z,17.20
2022-10-28T06:36:04.187Z,17.20
2022-10-28T06:38:31.619Z,17.20
2022-10-28T06:40:59.174Z,17.20
2022-10-28T06:43:26.772Z,17.20
2022-10-28T06:45:55.750Z,17.20
2022-10-28T06:48:24.985Z,17.20
2022-10-28T06:50:56.202Z,17.20
2022-10-28T06:53:24.443Z,17.20
2022-10-28T06:55:56.077Z,17.20
2022-10-28T06:58:24.267Z,17.20
2022-10-28T07:00:53.271Z,17.10
2022-10-28T07:03:21.038Z,17.10
2022-10-28T07:05:51.539Z,17.00
2022-10-28T07:08:19.148Z,17.00
2022-10-28T07:10:56.757Z,17.00
2022-10-28T07:13:24.867Z,17.10
2022-10-28T07:15:54.028Z,17.10
2022-10-28T07:18:22.160Z,17.10
2022-10-28T07:20:50.022Z,17.00
2022-10-28T07:23:18.084Z,17.00
2022-10-28T07:25:55.330Z,17.10
2022-10-28T07:28:24.083Z,17.10
2022-10-28T07:30:51.762Z,17.10
2022-10-28T07:33:19.718Z,17.10
2022-10-28T07:35:47.174Z,17.10
2022-10-28T07:38:14.834Z,17.10
2022-10-28T07:40:42.176Z,17.10
2022-10-28T07:43:09.726Z,17.10
2022-10-28T07:45:37.881Z,17.10
2022-10-28T07:48:06.459Z,17.10
2022-10-28T07:50:33.923Z,17.20
2022-10-28T07:53:01.396Z,17.30
2022-10-28T07:55:28.869Z,17.30
2022-10-28T07:57:56.600Z,17.30
2022-10-28T08:00:24.257Z,17.30
2022-10-28T08:02:51.667Z,17.30
2022-10-28T08:05:19.188Z,17.40
2022-10-28T08:07:47.919Z,17.50
2022-10-28T08:10:15.335Z,17.50
2022-10-28T08:12:42.933Z,17.50
2022-10-28T08:15:10.720Z,17.60
2022-10-28T08:17:38.186Z,17.60
2022-10-28T08:20:06.164Z,17.70
2022-10-28T08:22:33.547Z,17.70
2022-10-28T08:25:00.918Z,17.70
2022-10-28T08:27:28.381Z,17.70
2022-10-28T08:29:55.895Z,17.70
2022-10-28T08:32:23.292Z,17.70
2022-10-28T08:34:50.771Z,17.70
2022-10-28T08:37:18.179Z,17.80
2022-10-28T08:39:45.678Z,17.70
2022-10-28T08:42:56.651Z,17.70
2022-10-28T08:45:59.173Z,17.80
2022-10-28T08:48:35.841Z,17.80
2022-10-28T08:51:24.949Z,17.80
2022-10-28T08:54:03.058Z,17.80
2022-10-28T08:56:46.038Z,17.80
2022-10-28T08:59:20.032Z,17.80
2022-10-28T09:04:40.034Z,17.90
2022-10-28T09:07:26.035Z,17.90
2022-10-28T09:09:54.869Z,17.90
2022-10-28T09:12:46.730Z,17.90
2022-10-28T09:15:36.321Z,17.90
2022-10-28T09:18:26.604Z,17.90
2022-10-28T09:20:56.545Z,17.90
2022-10-28T09:23:31.209Z,17.90
2022-10-28T09:26:13.338Z,17.90
2022-10-28T09:29:11.533Z,17.80
2022-10-28T09:31:51.025Z,17.80
2022-10-28T09:34:18.356Z,17.80
2022-10-28T09:37:27.103Z,17.90
2022-10-28T09:40:20.446Z,17.90
2022-10-28T09:43:26.366Z,17.90
2022-10-28T09:45:58.369Z,17.90
2022-10-28T09:48:37.005Z,18.00
2022-10-28T09:51:04.980Z,18.00
2022-10-28T09:53:46.990Z,17.90
2022-10-28T09:56:15.457Z,17.90
2022-10-28T09:58:49.262Z,18.00
2022-10-28T10:01:20.164Z,17.90
2022-10-28T10:03:48.873Z,18.00
2022-10-28T10:06:20.115Z,17.90
2022-10-28T10:08:48.257Z,18.00
2022-10-28T10:11:23.337Z,17.90
2022-10-28T10:13:52.531Z,17.90
2022-10-28T10:16:50.087Z,17.90
2022-10-28T10:19:17.440Z,17.80
2022-10-28T10:21:44.804Z,17.80
2022-10-28T10:24:31.340Z,17.80
2022-10-28T10:27:13.442Z,17.90
2022-10-28T10:29:50.175Z,17.80
2022-10-28T10:32:27.164Z,17.90
2022-10-28T10:35:17.019Z,17.90
2022-10-28T10:37:47.167Z,18.00
2022-10-28T10:40:33.486Z,17.90
2022-10-28T10:43:18.909Z,17.80
2022-10-28T10:46:05.156Z,17.80
2022-10-28T10:48:36.423Z,17.80
2022-10-28T10:51:12.090Z,17.70
2022-10-28T10:53:40.293Z,17.70
2022-10-28T10:56:11.052Z,17.80
2022-10-28T10:58:40.394Z,17.90
2022-10-28T11:01:09.650Z,17.90
2022-10-28T11:03:47.665Z,17.90
2022-10-28T11:06:27.230Z,18.00
2022-10-28T11:09:02.590Z,17.90
2022-10-28T11:11:40.582Z,17.90
2022-10-28T11:14:10.815Z,17.80
2022-10-28T11:16:48.820Z,17.80
2022-10-28T11:19:34.653Z,17.90
2022-10-28T11:22:17.247Z,17.80
2022-10-28T11:25:02.805Z,17.80
2022-10-28T11:28:06.379Z,17.80
2022-10-28T11:30:55.423Z,17.80
2022-10-28T11:33:45.661Z,17.80
2022-10-28T11:36:12.988Z,17.80
2022-10-28T11:38:49.227Z,18.00
2022-10-28T11:41:24.161Z,18.00
2022-10-28T11:43:59.636Z,18.00
2022-10-28T11:46:38.570Z,18.00
2022-10-28T11:49:08.990Z,17.90
2022-10-28T11:51:54.727Z,18.00
2022-10-28T11:54:22.045Z,18.00
2022-10-28T11:57:05.930Z,17.90
2022-10-28T11:59:57.940Z,18.00
2022-10-28T12:02:34.081Z,18.10
2022-10-28T12:05:40.934Z,18.10
2022-10-28T12:08:41.550Z,18.20
2022-10-28T12:11:47.034Z,18.30
2022-10-28T12:14:23.006Z,18.50
2022-10-28T12:17:17.595Z,18.90
2022-10-28T12:19:53.834Z,18.90
2022-10-28T12:22:29.437Z,18.90
2022-10-28T12:24:58.410Z,18.80
2022-10-28T12:27:33.897Z,18.70
2022-10-28T12:30:21.793Z,18.70
2022-10-28T12:32:54.475Z,18.60
2022-10-28T12:35:26.048Z,18.60
2022-10-28T12:38:06.704Z,18.70
2022-10-28T12:40:56.015Z,19.00
2022-10-28T12:43:42.260Z,19.30
2022-10-28T12:46:28.417Z,19.20
2022-10-28T12:49:03.637Z,19.30
2022-10-28T12:51:36.340Z,19.20
2022-10-28T12:54:15.084Z,19.00
2022-10-28T12:56:59.688Z,19.00
2022-10-28T12:59:44.657Z,19.10
2022-10-28T13:02:22.167Z,19.20
2022-10-28T13:04:50.038Z,19.30
2022-10-28T13:07:38.385Z,19.30
2022-10-28T13:10:31.555Z,19.10
2022-10-28T13:13:14.671Z,19.10
2022-10-28T13:15:49.129Z,19.00
2022-10-28T13:18:25.379Z,19.00
2022-10-28T13:20:58.654Z,18.90
2022-10-28T13:23:41.179Z,18.80
2022-10-28T13:26:26.513Z,18.70
2022-10-28T13:28:56.955Z,18.60
2022-10-28T13:31:35.723Z,18.60
2022-10-28T13:34:03.396Z,18.80
2022-10-28T13:36:38.604Z,18.90
2022-10-28T13:39:22.658Z,18.90
2022-10-28T13:42:13.514Z,18.90
2022-10-28T13:45:06.515Z,18.90
2022-10-28T13:47:38.248Z,19.00
2022-10-28T13:50:09.208Z,19.10
2022-10-28T13:52:41.814Z,19.00
2022-10-28T13:55:26.542Z,18.90
2022-10-28T13:58:19.268Z,18.80
2022-10-28T14:00:49.165Z,18.70
2022-10-28T14:03:24.378Z,18.60
2022-10-28T14:05:58.209Z,18.50
2022-10-28T14:08:35.490Z,18.40
2022-10-28T14:11:29.255Z,18.40
2022-10-28T14:14:04.206Z,18.50
2022-10-28T14:16:31.611Z,18.50
2022-10-28T14:19:10.850Z,18.50
2022-10-28T14:21:40.342Z,18.60
2022-10-28T14:24:14.167Z,18.60
2022-10-28T14:27:09.992Z,18.60
2022-10-28T14:29:57.364Z,18.60
2022-10-28T14:32:33.749Z,18.50
2022-10-28T14:35:13.308Z,18.40
2022-10-28T14:38:07.322Z,18.30
2022-10-28T14:40:56.511Z,18.30
2022-10-28T14:43:37.449Z,18.30
2022-10-28T14:46:04.767Z,18.30
2022-10-28T14:48:52.191Z,18.30
2022-10-28T14:51:23.570Z,18.20
2022-10-28T14:53:56.466Z,18.20
2022-10-28T14:56:31.202Z,18.10
2022-10-28T14:59:21.669Z,18.00
2022-10-28T15:02:04.101Z,18.00
2022-10-28T15:04:31.970Z,18.00
2022-10-28T15:07:00.113Z,18.00
2022-10-28T15:09:30.468Z,18.00
2022-10-28T15:12:26.193Z,18.00
2022-10-28T15:14:56.390Z,18.00
2022-10-28T15:17:29.243Z,18.00
2022-10-28T15:20:00.706Z,18.00
2022-10-28T15:22:31.277Z,17.90
2022-10-28T15:25:06.177Z,17.80
2022-10-28T15:27:41.400Z,17.80
2022-10-28T15:30:23.556Z,17.80
2022-10-28T15:32:52.503Z,17.70
2022-10-28T15:35:35.283Z,17.70
2022-10-28T15:38:23.358Z,17.70
2022-10-28T15:40:50.876Z,17.70
2022-10-28T15:43:27.893Z,17.70
2022-10-28T15:46:10.784Z,17.70
2022-10-28T15:48:38.350Z,17.60
2022-10-28T15:51:16.120Z,17.60
2022-10-28T15:53:48.950Z,17.50
2022-10-28T15:56:24.448Z,17.50
2022-10-28T15:59:27.536Z,17.40
2022-10-28T16:01:56.577Z,17.40
2022-10-28T16:04:24.174Z,17.40
2022-10-28T16:06:54.431Z,17.40
2022-10-28T16:09:32.747Z,17.30
2022-10-28T16:12:12.116Z,17.30
2022-10-28T16:15:13.294Z,17.20
2022-10-28T16:17:41.694Z,17.20
2022-10-28T16:20:20.519Z,17.30
2022-10-28T16:22:48.464Z,17.20
2022-10-28T16:25:20.122Z,17.10
2022-10-28T16:27:48.982Z,17.00
2022-10-28T16:30:16.853Z,17.00
2022-10-28T16:32:47.597Z,17.00
2022-10-28T16:35:20.034Z,16.90
2022-10-28T16:37:50.693Z,16.90
2022-10-28T16:43:15.293Z,16.90
2022-10-28T16:45:43.034Z,16.80
2022-10-28T16:48:13.217Z,16.80
2022-10-28T16:50:43.788Z,16.70
2022-10-28T16:53:12.913Z,16.70
2022-10-28T16:55:40.913Z,16.70
2022-10-28T16:58:08.499Z,16.60
2022-10-28T17:00:36.544Z,16.60
2022-10-28T17:03:04.052Z,16.50
2022-10-28T17:05:31.686Z,16.50
2022-10-28T17:07:59.856Z,16.40
2022-10-28T17:10:28.285Z,16.30
2022-10-28T17:12:56.398Z,16.30
2022-10-28T17:15:24.082Z,16.20
2022-10-28T17:17:53.105Z,16.20
2022-10-28T17:20:20.910Z,16.20
2022-10-28T17:22:48.397Z,16.10
2022-10-28T17:25:16.158Z,16.10
2022-10-28T17:27:48.355Z,16.00
2022-10-28T17:30:18.693Z,16.00
2022-10-28T17:32:51.394Z,16.00
2022-10-28T17:35:22.840Z,16.00
2022-10-28T17:37:50.195Z,15.90
2022-10-28T17:40:17.690Z,15.90
2022-10-28T17:42:45.019Z,15.90
2022-10-28T17:45:14.439Z,15.90
2022-10-28T17:47:43.881Z,15.90
2022-10-28T17:50:11.233Z,15.90
2022-10-28T17:52:38.730Z,15.80
2022-10-28T17:55:06.747Z,15.80
2022-10-28T17:57:34.171Z,15.80
2022-10-28T18:00:01.614Z,15.70
2022-10-28T18:02:29.219Z,15.70
2022-10-28T18:04:56.519Z,15.70
2022-10-28T18:07:23.679Z,15.60
2022-10-28T18:09:51.714Z,15.60
2022-10-28T18:12:19.054Z,15.50
2022-10-28T18:14:46.424Z,15.50
2022-10-28T18:17:14.678Z,15.50
2022-10-28T18:19:42.121Z,15.40
2022-10-28T18:22:11.141Z,15.40
2022-10-28T18:24:38.592Z,15.40
2022-10-28T18:27:05.944Z,15.40
2022-10-28T18:29:33.495Z,15.30
2022-10-28T18:32:04.306Z,15.30
2022-10-28T18:34:32.201Z,15.20
2022-10-28T18:36:59.664Z,15.20
2022-10-28T18:39:27.158Z,15.10
2022-10-28T18:41:54.541Z,15.10
2022-10-28T18:44:26.990Z,15.00
2022-10-28T18:46:54.416Z,15.00
2022-10-28T18:49:21.757Z,15.00
2022-10-28T18:51:49.121Z,14.90
2022-10-28T18:54:16.508Z,14.90
2022-10-28T18:56:47.635Z,14.90
2022-10-28T18:59:16.078Z,14.90
2022-10-28T19:01:46.804Z,14.80
2022-10-28T19:04:15.308Z,14.80
2022-10-28T19:06:42.775Z,14.90
2022-10-28T19:09:10.188Z,14.80
2022-10-28T19:11:37.665Z,14.80
2022-10-28T19:14:06.580Z,14.70
2022-10-28T19:16:34.782Z,14.70
2022-10-28T19:19:04.778Z,14.60
2022-10-28T19:21:32.834Z,14.60
2022-10-28T19:24:00.555Z,14.60
2022-10-28T19:26:28.278Z,14.70
2022-10-28T19:28:55.657Z,14.60
2022-10-28T19:31:24.931Z,14.60
2022-10-28T19:33:53.507Z,14.60
2022-10-28T19:36:26.288Z,14.50
2022-10-28T19:38:55.507Z,14.50
2022-10-28T19:41:25.938Z,14.50
2022-10-28T19:43:59.065Z,14.40
2022-10-28T19:46:28.642Z,14.40
2022-10-28T19:49:00.825Z,14.40
2022-10-28T19:51:30.580Z,14.30
2022-10-28T19:54:00.227Z,14.30
2022-10-28T19:56:29.447Z,14.30
2022-10-28T19:58:58.780Z,14.30
2022-10-28T20:01:29.197Z,14.30
2022-10-28T20:03:57.199Z,14.30
2022-10-28T20:06:27.313Z,14.20
2022-10-28T20:08:54.745Z,14.20
2022-10-28T20:11:26.306Z,14.20
2022-10-28T20:13:57.204Z,14.20
2022-10-28T20:16:25.184Z,14.20
2022-10-28T20:18:54.253Z,14.20
2022-10-28T20:21:23.325Z,14.10
2022-10-28T20:23:56.029Z,14.10
2022-10-28T20:26:28.496Z,14.10
2022-10-28T20:28:56.444Z,14.20
2022-10-28T20:31:29.452Z,14.20
2022-10-28T20:33:58.851Z,14.20
2022-10-28T20:36:29.199Z,14.20
2022-10-28T20:38:57.634Z,14.10
2022-10-28T20:41:27.388Z,14.10
2022-10-28T20:43:55.427Z,14.10
2022-10-28T20:46:24.341Z,14.10
2022-10-28T20:48:54.246Z,14.20
2022-10-28T20:51:26.445Z,14.10
2022-10-28T20:53:54.023Z,14.20
2022-10-28T20:56:26.203Z,14.20
2022-10-28T20:58:55.841Z,14.20
2022-10-28T21:01:32.034Z,14.20
2022-10-28T21:04:05.621Z,14.30
2022-10-28T21:06:33.526Z,14.30
2022-10-28T21:09:00.950Z,14.30
2022-10-28T21:11:28.942Z,14.40
2022-10-28T21:13:59.577Z,14.40
2022-10-28T21:16:28.487Z,14.40
2022-10-28T21:18:56.265Z,14.30
2022-10-28T21:21:24.910Z,14.30
2022-10-28T21:23:52.531Z,14.30
2022-10-28T21:26:20.131Z,14.30
2022-10-28T21:28:52.142Z,14.30
2022-10-28T21:31:21.069Z,14.30
2022-10-28T21:36:19.791Z,14.20
2022-10-28T21:38:47.551Z,14.20
2022-10-28T21:41:18.208Z,14.20
2022-10-28T21:43:50.824Z,14.20
2022-10-28T21:46:20.282Z,14.20
2022-10-28T21:48:47.965Z,14.20
2022-10-28T21:51:16.585Z,14.20
2022-10-28T21:53:44.777Z,14.10
2022-10-28T21:56:19.311Z,14.10
2022-10-28T21:58:48.779Z,14.10
2022-10-28T22:01:23.822Z,14.10
2022-10-28T22:03:52.332Z,14.10
2022-10-28T22:06:19.776Z,14.10
2022-10-28T22:08:47.621Z,14.10
2022-10-28T22:11:20.510Z,14.00
2022-10-28T22:13:54.747Z,14.00
2022-10-28T22:16:22.209Z,14.00
2022-10-28T22:18:49.562Z,14.10
2022-10-28T22:21:25.531Z,14.10
2022-10-28T22:23:53.396Z,14.10
2022-10-28T22:26:23.381Z,14.10
2022-10-28T22:28:51.575Z,14.20
2022-10-28T22:31:22.687Z,14.10
2022-10-28T22:33:50.659Z,14.10
2022-10-28T22:36:20.776Z,14.20
2022-10-28T22:38:49.225Z,14.20
2022-10-28T22:41:23.708Z,14.20
2022-10-28T22:43:53.679Z,14.20
2022-10-28T22:46:22.276Z,14.20
2022-10-28T22:48:49.924Z,14.20
2022-10-28T22:51:18.082Z,14.20
2022-10-28T22:53:45.763Z,14.20
2022-10-28T22:56:21.743Z,14.20
2022-10-28T22:58:53.181Z,14.20
2022-10-28T23:01:21.452Z,14.20
2022-10-28T23:03:50.927Z,14.20
2022-10-28T23:06:23.501Z,14.20
2022-10-28T23:08:50.978Z,14.10
2022-10-28T23:11:20.006Z,14.10
2022-10-28T23:13:52.340Z,14.10
2022-10-28T23:16:20.300Z,14.10
2022-10-28T23:18:48.827Z,14.10
2022-10-28T23:21:18.775Z,14.00
2022-10-28T23:23:51.129Z,13.90
2022-10-28T23:26:21.885Z,13.90
2022-10-28T23:28:54.217Z,14.00
2022-10-28T23:31:22.566Z,13.90
2022-10-28T23:33:50.625Z,13.90
2022-10-28T23:36:18.073Z,13.90
2022-10-28T23:38:45.490Z,13.90
2022-10-28T23:41:18.079Z,13.90
2022-10-28T23:43:45.741Z,13.90
2022-10-28T23:46:13.172Z,13.90
2022-10-28T23:48:40.605Z,13.90
2022-10-28T23:51:08.379Z,13.80
2022-10-28T23:53:35.778Z,13.90
2022-10-28T23:56:03.301Z,13.90
2022-10-28T23:58:30.844Z,13.90
